sensor_id;sensor_type;location;lat;lon;timestamp;P1;durP1;ratioP1;P2;durP2;ratioP2
3280;SDS011;1652;51.318;6.202;2023-05-10T00:02:07;28.30;;;15.40;;
3280;SDS011;1652;51.318;6.202;2023-05-10T00:04:34;29.17;;;14.97;;
3280;SDS011;1652;51.318;6.202;2023-05-10T00:07:01;25.67;;;14.07;;
3280;SDS011;1652;51.318;6.202;2023-05-10T00:09:28;33.10;;;14.40;;
3280;SDS011;1652;51.318;6.202;2023-05-10T00:11:55;22.00;;;12.57;;
3280;SDS011;1652;51.318;6.202;2023-05-10T00:14:24;25.53;;;13.50;;
3280;SDS011;1652;51.318;6.202;2023-05-10T00:16:51;20.97;;;12.60;;
3280;SDS011;1652;51.318;6.202;2023-05-10T00:19:18;29.47;;;14.23;;
3280;SDS011;1652;51.318;6.202;2023-05-10T00:21:45;17.47;;;11.37;;
3280;SDS011;1652;51.318;6.202;2023-05-10T00:24:12;20.93;;;12.20;;
3280;SDS011;1652;51.318;6.202;2023-05-10T00:26:39;20.10;;;11.30;;
3280;SDS011;1652;51.318;6.202;2023-05-10T00:29:08;17.10;;;10.00;;
3280;SDS011;1652;51.318;6.202;2023-05-10T00:31:35;16.83;;;10.70;;
3280;SDS011;1652;51.318;6.202;2023-05-10T00:34:02;20.27;;;10.90;;
3280;SDS011;1652;51.318;6.202;2023-05-10T00:36:29;14.27;;;9.40;;
3280;SDS011;1652;51.318;6.202;2023-05-10T00:38:57;21.60;;;10.63;;
3280;SDS011;1652;51.318;6.202;2023-05-10T00:41:24;16.87;;;10.63;;
3280;SDS011;1652;51.318;6.202;2023-05-10T00:43:51;19.67;;;10.70;;
3280;SDS011;1652;51.318;6.202;2023-05-10T00:46:18;17.10;;;10.83;;
3280;SDS011;1652;51.318;6.202;2023-05-10T00:48:45;24.07;;;11.63;;
3280;SDS011;1652;51.318;6.202;2023-05-10T00:51:12;15.87;;;10.13;;
3280;SDS011;1652;51.318;6.202;2023-05-10T00:53:40;14.37;;;10.53;;
3280;SDS011;1652;51.318;6.202;2023-05-10T00:56:07;21.67;;;11.57;;
3280;SDS011;1652;51.318;6.202;2023-05-10T00:58:34;17.53;;;10.20;;
3280;SDS011;1652;51.318;6.202;2023-05-10T01:01:01;21.50;;;11.40;;
3280;SDS011;1652;51.318;6.202;2023-05-10T01:03:28;16.80;;;9.87;;
3280;SDS011;1652;51.318;6.202;2023-05-10T01:05:55;18.37;;;10.97;;
3280;SDS011;1652;51.318;6.202;2023-05-10T01:08:22;19.77;;;10.00;;
3280;SDS011;1652;51.318;6.202;2023-05-10T01:10:50;19.00;;;12.20;;
3280;SDS011;1652;51.318;6.202;2023-05-10T01:13:18;16.40;;;10.77;;
3280;SDS011;1652;51.318;6.202;2023-05-10T01:15:59;16.23;;;9.67;;
3280;SDS011;1652;51.318;6.202;2023-05-10T01:18:30;16.10;;;9.07;;
3280;SDS011;1652;51.318;6.202;2023-05-10T01:43:26;16.97;;;10.60;;
3280;SDS011;1652;51.318;6.202;2023-05-10T01:46:01;14.13;;;9.90;;
3280;SDS011;1652;51.318;6.202;2023-05-10T01:48:41;18.17;;;10.03;;
3280;SDS011;1652;51.318;6.202;2023-05-10T01:51:19;18.40;;;10.00;;
3280;SDS011;1652;51.318;6.202;2023-05-10T01:53:50;13.83;;;9.83;;
3280;SDS011;1652;51.318;6.202;2023-05-10T01:56:20;25.03;;;12.30;;
3280;SDS011;1652;51.318;6.202;2023-05-10T01:58:51;22.50;;;11.63;;
3280;SDS011;1652;51.318;6.202;2023-05-10T02:01:20;23.00;;;12.70;;
3280;SDS011;1652;51.318;6.202;2023-05-10T02:03:49;25.20;;;14.50;;
3280;SDS011;1652;51.318;6.202;2023-05-10T02:06:18;29.00;;;14.93;;
3280;SDS011;1652;51.318;6.202;2023-05-10T02:08:48;26.73;;;15.67;;
3280;SDS011;1652;51.318;6.202;2023-05-10T02:11:17;27.50;;;16.07;;
3280;SDS011;1652;51.318;6.202;2023-05-10T02:13:44;28.30;;;14.90;;
3280;SDS011;1652;51.318;6.202;2023-05-10T02:16:14;30.67;;;16.80;;
3280;SDS011;1652;51.318;6.202;2023-05-10T02:18:43;30.83;;;16.03;;
3280;SDS011;1652;51.318;6.202;2023-05-10T02:21:11;34.73;;;17.07;;
3280;SDS011;1652;51.318;6.202;2023-05-10T02:23:39;50.60;;;17.40;;
3280;SDS011;1652;51.318;6.202;2023-05-10T02:26:06;29.20;;;15.23;;
3280;SDS011;1652;51.318;6.202;2023-05-10T02:28:35;29.93;;;16.27;;
3280;SDS011;1652;51.318;6.202;2023-05-10T02:31:04;40.00;;;17.70;;
3280;SDS011;1652;51.318;6.202;2023-05-10T02:33:32;33.20;;;15.90;;
3280;SDS011;1652;51.318;6.202;2023-05-10T02:36:01;32.50;;;17.67;;
3280;SDS011;1652;51.318;6.202;2023-05-10T02:38:29;38.93;;;18.03;;
3280;SDS011;1652;51.318;6.202;2023-05-10T02:40:57;39.30;;;18.50;;
3280;SDS011;1652;51.318;6.202;2023-05-10T02:43:26;38.50;;;17.63;;
3280;SDS011;1652;51.318;6.202;2023-05-10T02:45:56;40.60;;;18.90;;
3280;SDS011;1652;51.318;6.202;2023-05-10T02:48:23;44.43;;;18.90;;
3280;SDS011;1652;51.318;6.202;2023-05-10T02:50:50;45.77;;;20.17;;
3280;SDS011;1652;51.318;6.202;2023-05-10T02:53:22;44.53;;;19.73;;
3280;SDS011;1652;51.318;6.202;2023-05-10T02:55:55;38.20;;;19.70;;
3280;SDS011;1652;51.318;6.202;2023-05-10T02:58:25;48.63;;;21.83;;
3280;SDS011;1652;51.318;6.202;2023-05-10T03:00:53;45.90;;;21.60;;
3280;SDS011;1652;51.318;6.202;2023-05-10T03:03:20;49.07;;;21.07;;
3280;SDS011;1652;51.318;6.202;2023-05-10T03:05:47;53.37;;;22.83;;
3280;SDS011;1652;51.318;6.202;2023-05-10T03:08:14;52.23;;;22.40;;
3280;SDS011;1652;51.318;6.202;2023-05-10T03:10:43;56.70;;;25.50;;
3280;SDS011;1652;51.318;6.202;2023-05-10T03:13:28;61.73;;;27.00;;
3280;SDS011;1652;51.318;6.202;2023-05-10T03:16:01;60.27;;;26.03;;
3280;SDS011;1652;51.318;6.202;2023-05-10T03:18:37;67.17;;;27.77;;
3280;SDS011;1652;51.318;6.202;2023-05-10T03:21:12;74.43;;;27.77;;
3280;SDS011;1652;51.318;6.202;2023-05-10T03:23:56;75.30;;;27.87;;
3280;SDS011;1652;51.318;6.202;2023-05-10T03:26:27;72.67;;;29.07;;
3280;SDS011;1652;51.318;6.202;2023-05-10T03:28:55;67.30;;;30.17;;
3280;SDS011;1652;51.318;6.202;2023-05-10T03:31:25;65.63;;;28.33;;
3280;SDS011;1652;51.318;6.202;2023-05-10T03:33:52;79.73;;;28.03;;
3280;SDS011;1652;51.318;6.202;2023-05-10T03:36:19;79.77;;;30.17;;
3280;SDS011;1652;51.318;6.202;2023-05-10T03:38:46;68.97;;;29.83;;
3280;SDS011;1652;51.318;6.202;2023-05-10T03:41:13;65.67;;;28.10;;
3280;SDS011;1652;51.318;6.202;2023-05-10T03:43:40;62.10;;;29.27;;
3280;SDS011;1652;51.318;6.202;2023-05-10T03:46:08;78.80;;;29.00;;
3280;SDS011;1652;51.318;6.202;2023-05-10T03:48:35;70.50;;;27.77;;
3280;SDS011;1652;51.318;6.202;2023-05-10T03:51:01;62.70;;;28.67;;
3280;SDS011;1652;51.318;6.202;2023-05-10T03:53:28;51.83;;;26.87;;
3280;SDS011;1652;51.318;6.202;2023-05-10T03:55:55;60.77;;;28.40;;
3280;SDS011;1652;51.318;6.202;2023-05-10T03:58:22;62.97;;;28.37;;
3280;SDS011;1652;51.318;6.202;2023-05-10T04:00:50;63.30;;;27.03;;
3280;SDS011;1652;51.318;6.202;2023-05-10T04:03:17;62.40;;;28.03;;
3280;SDS011;1652;51.318;6.202;2023-05-10T04:05:44;60.70;;;29.17;;
3280;SDS011;1652;51.318;6.202;2023-05-10T04:08:11;59.17;;;28.07;;
3280;SDS011;1652;51.318;6.202;2023-05-10T04:10:38;59.80;;;27.20;;
3280;SDS011;1652;51.318;6.202;2023-05-10T04:13:06;55.20;;;27.93;;
3280;SDS011;1652;51.318;6.202;2023-05-10T04:15:32;56.27;;;27.03;;
3280;SDS011;1652;51.318;6.202;2023-05-10T04:18:00;59.03;;;28.40;;
3280;SDS011;1652;51.318;6.202;2023-05-10T04:20:27;50.20;;;25.50;;
3280;SDS011;1652;51.318;6.202;2023-05-10T04:22:54;60.50;;;27.13;;
3280;SDS011;1652;51.318;6.202;2023-05-10T04:25:21;66.87;;;26.93;;
3280;SDS011;1652;51.318;6.202;2023-05-10T04:27:48;63.90;;;28.20;;
3280;SDS011;1652;51.318;6.202;2023-05-10T04:30:14;56.70;;;28.30;;
3280;SDS011;1652;51.318;6.202;2023-05-10T04:32:42;61.30;;;28.60;;
3280;SDS011;1652;51.318;6.202;2023-05-10T04:35:09;67.33;;;28.17;;
3280;SDS011;1652;51.318;6.202;2023-05-10T04:37:36;59.47;;;27.87;;
3280;SDS011;1652;51.318;6.202;2023-05-10T04:40:04;65.80;;;28.37;;
3280;SDS011;1652;51.318;6.202;2023-05-10T04:42:31;66.63;;;29.10;;
3280;SDS011;1652;51.318;6.202;2023-05-10T04:44:58;78.77;;;30.33;;
3280;SDS011;1652;51.318;6.202;2023-05-10T04:47:25;77.90;;;30.87;;
3280;SDS011;1652;51.318;6.202;2023-05-10T04:49:52;76.37;;;31.00;;
3280;SDS011;1652;51.318;6.202;2023-05-10T04:52:19;75.00;;;29.83;;
3280;SDS011;1652;51.318;6.202;2023-05-10T04:54:46;80.70;;;30.93;;
3280;SDS011;1652;51.318;6.202;2023-05-10T04:57:13;77.63;;;29.83;;
3280;SDS011;1652;51.318;6.202;2023-05-10T04:59:40;78.60;;;31.00;;
3280;SDS011;1652;51.318;6.202;2023-05-10T05:02:07;84.87;;;30.53;;
3280;SDS011;1652;51.318;6.202;2023-05-10T05:04:34;90.67;;;30.53;;
3280;SDS011;1652;51.318;6.202;2023-05-10T05:07:01;80.23;;;30.33;;
3280;SDS011;1652;51.318;6.202;2023-05-10T05:09:28;79.57;;;29.30;;
3280;SDS011;1652;51.318;6.202;2023-05-10T05:11:55;80.87;;;31.50;;
3280;SDS011;1652;51.318;6.202;2023-05-10T05:14:22;81.57;;;29.30;;
3280;SDS011;1652;51.318;6.202;2023-05-10T05:16:51;81.33;;;30.83;;
3280;SDS011;1652;51.318;6.202;2023-05-10T05:19:19;72.50;;;32.07;;
3280;SDS011;1652;51.318;6.202;2023-05-10T05:21:46;83.97;;;30.07;;
3280;SDS011;1652;51.318;6.202;2023-05-10T05:24:13;76.60;;;30.17;;
3280;SDS011;1652;51.318;6.202;2023-05-10T05:26:39;75.63;;;28.27;;
3280;SDS011;1652;51.318;6.202;2023-05-10T05:29:06;90.10;;;30.30;;
3280;SDS011;1652;51.318;6.202;2023-05-10T05:31:33;71.93;;;28.93;;
3280;SDS011;1652;51.318;6.202;2023-05-10T05:34:00;76.43;;;27.67;;
3280;SDS011;1652;51.318;6.202;2023-05-10T05:36:27;82.07;;;30.60;;
3280;SDS011;1652;51.318;6.202;2023-05-10T05:38:54;78.53;;;29.80;;
3280;SDS011;1652;51.318;6.202;2023-05-10T05:41:21;77.60;;;31.07;;
3280;SDS011;1652;51.318;6.202;2023-05-10T05:43:48;76.17;;;29.33;;
3280;SDS011;1652;51.318;6.202;2023-05-10T05:46:14;74.90;;;29.47;;
3280;SDS011;1652;51.318;6.202;2023-05-10T05:48:41;76.90;;;30.07;;
3280;SDS011;1652;51.318;6.202;2023-05-10T05:51:08;83.20;;;29.40;;
3280;SDS011;1652;51.318;6.202;2023-05-10T05:53:35;78.10;;;31.50;;
3280;SDS011;1652;51.318;6.202;2023-05-10T05:56:02;79.87;;;30.87;;
3280;SDS011;1652;51.318;6.202;2023-05-10T05:58:29;79.70;;;29.40;;
3280;SDS011;1652;51.318;6.202;2023-05-10T06:00:56;82.80;;;29.63;;
3280;SDS011;1652;51.318;6.202;2023-05-10T06:03:23;78.70;;;29.10;;
3280;SDS011;1652;51.318;6.202;2023-05-10T06:05:50;79.30;;;30.87;;
3280;SDS011;1652;51.318;6.202;2023-05-10T06:08:17;82.77;;;30.87;;
3280;SDS011;1652;51.318;6.202;2023-05-10T06:10:44;89.17;;;29.97;;
3280;SDS011;1652;51.318;6.202;2023-05-10T06:13:11;76.17;;;30.57;;
3280;SDS011;1652;51.318;6.202;2023-05-10T06:15:38;101.83;;;34.60;;
3280;SDS011;1652;51.318;6.202;2023-05-10T06:18:06;84.30;;;31.57;;
3280;SDS011;1652;51.318;6.202;2023-05-10T06:20:33;74.17;;;29.20;;
3280;SDS011;1652;51.318;6.202;2023-05-10T06:23:00;83.33;;;30.70;;
3280;SDS011;1652;51.318;6.202;2023-05-10T06:25:27;82.10;;;30.40;;
3280;SDS011;1652;51.318;6.202;2023-05-10T06:27:54;81.30;;;32.03;;
3280;SDS011;1652;51.318;6.202;2023-05-10T06:30:24;68.20;;;29.83;;
3280;SDS011;1652;51.318;6.202;2023-05-10T06:32:55;74.00;;;30.03;;
3280;SDS011;1652;51.318;6.202;2023-05-10T06:35:23;84.57;;;31.37;;
3280;SDS011;1652;51.318;6.202;2023-05-10T06:37:50;65.40;;;29.10;;
3280;SDS011;1652;51.318;6.202;2023-05-10T06:40:17;73.27;;;29.90;;
3280;SDS011;1652;51.318;6.202;2023-05-10T06:42:45;73.93;;;29.27;;
3280;SDS011;1652;51.318;6.202;2023-05-10T06:45:12;75.83;;;31.10;;
3280;SDS011;1652;51.318;6.202;2023-05-10T06:47:41;74.93;;;29.70;;
3280;SDS011;1652;51.318;6.202;2023-05-10T06:50:08;77.37;;;30.10;;
3280;SDS011;1652;51.318;6.202;2023-05-10T06:52:35;71.23;;;30.03;;
3280;SDS011;1652;51.318;6.202;2023-05-10T06:55:03;79.00;;;30.27;;
3280;SDS011;1652;51.318;6.202;2023-05-10T06:57:31;69.77;;;29.20;;
3280;SDS011;1652;51.318;6.202;2023-05-10T06:59:58;68.33;;;31.13;;
3280;SDS011;1652;51.318;6.202;2023-05-10T07:02:25;71.57;;;29.80;;
3280;SDS011;1652;51.318;6.202;2023-05-10T07:04:52;67.10;;;30.37;;
3280;SDS011;1652;51.318;6.202;2023-05-10T07:07:20;67.73;;;31.00;;
3280;SDS011;1652;51.318;6.202;2023-05-10T07:09:47;61.60;;;29.13;;
3280;SDS011;1652;51.318;6.202;2023-05-10T07:12:15;73.50;;;29.20;;
3280;SDS011;1652;51.318;6.202;2023-05-10T07:14:42;65.07;;;27.93;;
3280;SDS011;1652;51.318;6.202;2023-05-10T07:17:09;55.93;;;27.37;;
3280;SDS011;1652;51.318;6.202;2023-05-10T07:19:36;65.20;;;28.27;;
3280;SDS011;1652;51.318;6.202;2023-05-10T07:22:03;60.60;;;30.40;;
3280;SDS011;1652;51.318;6.202;2023-05-10T07:24:30;53.80;;;28.07;;
3280;SDS011;1652;51.318;6.202;2023-05-10T07:26:57;47.77;;;25.43;;
3280;SDS011;1652;51.318;6.202;2023-05-10T07:29:24;54.53;;;27.37;;
3280;SDS011;1652;51.318;6.202;2023-05-10T07:31:52;48.40;;;25.90;;
3280;SDS011;1652;51.318;6.202;2023-05-10T07:34:22;46.67;;;26.73;;
3280;SDS011;1652;51.318;6.202;2023-05-10T07:36:49;46.70;;;26.07;;
3280;SDS011;1652;51.318;6.202;2023-05-10T07:39:15;40.90;;;24.23;;
3280;SDS011;1652;51.318;6.202;2023-05-10T07:41:52;41.80;;;23.93;;
3280;SDS011;1652;51.318;6.202;2023-05-10T07:44:19;52.40;;;25.13;;
3280;SDS011;1652;51.318;6.202;2023-05-10T07:46:46;42.37;;;23.90;;
3280;SDS011;1652;51.318;6.202;2023-05-10T07:49:13;39.70;;;22.03;;
3280;SDS011;1652;51.318;6.202;2023-05-10T07:51:41;36.20;;;22.50;;
3280;SDS011;1652;51.318;6.202;2023-05-10T07:54:08;50.23;;;22.57;;
3280;SDS011;1652;51.318;6.202;2023-05-10T07:56:35;39.03;;;20.73;;
3280;SDS011;1652;51.318;6.202;2023-05-10T07:59:03;36.97;;;20.97;;
3280;SDS011;1652;51.318;6.202;2023-05-10T08:01:31;27.77;;;17.97;;
3280;SDS011;1652;51.318;6.202;2023-05-10T08:03:59;34.20;;;19.53;;
3280;SDS011;1652;51.318;6.202;2023-05-10T08:06:28;28.70;;;17.70;;
3280;SDS011;1652;51.318;6.202;2023-05-10T08:08:56;30.17;;;19.90;;
3280;SDS011;1652;51.318;6.202;2023-05-10T08:11:24;29.70;;;17.83;;
3280;SDS011;1652;51.318;6.202;2023-05-10T08:13:51;35.37;;;20.20;;
3280;SDS011;1652;51.318;6.202;2023-05-10T08:16:19;30.37;;;18.33;;
3280;SDS011;1652;51.318;6.202;2023-05-10T08:18:46;31.20;;;19.13;;
3280;SDS011;1652;51.318;6.202;2023-05-10T08:21:15;34.27;;;18.97;;
3280;SDS011;1652;51.318;6.202;2023-05-10T08:23:42;28.00;;;18.90;;
3280;SDS011;1652;51.318;6.202;2023-05-10T08:26:10;33.50;;;19.90;;
3280;SDS011;1652;51.318;6.202;2023-05-10T08:28:37;29.53;;;18.73;;
3280;SDS011;1652;51.318;6.202;2023-05-10T08:31:04;32.77;;;19.40;;
3280;SDS011;1652;51.318;6.202;2023-05-10T08:33:31;28.27;;;18.90;;
3280;SDS011;1652;51.318;6.202;2023-05-10T08:35:58;28.40;;;18.17;;
3280;SDS011;1652;51.318;6.202;2023-05-10T08:38:25;34.50;;;19.50;;
3280;SDS011;1652;51.318;6.202;2023-05-10T08:40:53;35.70;;;19.27;;
3280;SDS011;1652;51.318;6.202;2023-05-10T08:43:28;33.57;;;19.30;;
3280;SDS011;1652;51.318;6.202;2023-05-10T08:45:56;34.23;;;19.03;;
3280;SDS011;1652;51.318;6.202;2023-05-10T08:48:27;33.60;;;19.73;;
3280;SDS011;1652;51.318;6.202;2023-05-10T08:50:56;37.07;;;21.23;;
3280;SDS011;1652;51.318;6.202;2023-05-10T08:53:25;33.10;;;19.63;;
3280;SDS011;1652;51.318;6.202;2023-05-10T08:55:54;27.60;;;19.20;;
3280;SDS011;1652;51.318;6.202;2023-05-10T08:58:22;31.57;;;18.93;;
3280;SDS011;1652;51.318;6.202;2023-05-10T09:00:49;28.93;;;19.13;;
3280;SDS011;1652;51.318;6.202;2023-05-10T09:03:19;31.93;;;18.20;;
3280;SDS011;1652;51.318;6.202;2023-05-10T09:05:46;30.53;;;17.20;;
3280;SDS011;1652;51.318;6.202;2023-05-10T09:08:14;24.30;;;16.17;;
3280;SDS011;1652;51.318;6.202;2023-05-10T09:10:44;26.30;;;17.13;;
3280;SDS011;1652;51.318;6.202;2023-05-10T09:13:14;25.87;;;18.03;;
3280;SDS011;1652;51.318;6.202;2023-05-10T09:15:43;24.60;;;17.13;;
3280;SDS011;1652;51.318;6.202;2023-05-10T09:18:10;33.90;;;17.07;;
3280;SDS011;1652;51.318;6.202;2023-05-10T09:20:38;32.00;;;16.20;;
3280;SDS011;1652;51.318;6.202;2023-05-10T09:23:04;28.87;;;16.10;;
3280;SDS011;1652;51.318;6.202;2023-05-10T09:25:32;27.97;;;16.93;;
3280;SDS011;1652;51.318;6.202;2023-05-10T09:28:02;30.33;;;16.00;;
3280;SDS011;1652;51.318;6.202;2023-05-10T09:30:32;23.80;;;15.13;;
3280;SDS011;1652;51.318;6.202;2023-05-10T09:32:59;22.97;;;15.60;;
3280;SDS011;1652;51.318;6.202;2023-05-10T09:35:27;22.03;;;15.37;;
3280;SDS011;1652;51.318;6.202;2023-05-10T09:37:57;24.70;;;16.27;;
3280;SDS011;1652;51.318;6.202;2023-05-10T09:40:27;24.67;;;14.17;;
3280;SDS011;1652;51.318;6.202;2023-05-10T09:45:34;18.43;;;14.30;;
3280;SDS011;1652;51.318;6.202;2023-05-10T09:48:04;19.97;;;14.93;;
3280;SDS011;1652;51.318;6.202;2023-05-10T09:50:32;21.77;;;14.00;;
3280;SDS011;1652;51.318;6.202;2023-05-10T09:53:01;27.03;;;14.90;;
3280;SDS011;1652;51.318;6.202;2023-05-10T09:58:20;32.63;;;22.53;;
3280;SDS011;1652;51.318;6.202;2023-05-10T10:00:47;24.80;;;15.80;;
3280;SDS011;1652;51.318;6.202;2023-05-10T10:03:18;25.30;;;16.07;;
3280;SDS011;1652;51.318;6.202;2023-05-10T10:05:47;26.67;;;17.23;;
3280;SDS011;1652;51.318;6.202;2023-05-10T10:08:15;25.83;;;15.77;;
3280;SDS011;1652;51.318;6.202;2023-05-10T10:10:43;26.33;;;17.33;;
3280;SDS011;1652;51.318;6.202;2023-05-10T10:13:13;20.23;;;15.70;;
3280;SDS011;1652;51.318;6.202;2023-05-10T10:15:40;26.87;;;17.47;;
3280;SDS011;1652;51.318;6.202;2023-05-10T10:18:12;29.37;;;19.70;;
3280;SDS011;1652;51.318;6.202;2023-05-10T10:20:41;28.37;;;17.60;;
3280;SDS011;1652;51.318;6.202;2023-05-10T10:23:08;29.97;;;19.67;;
3280;SDS011;1652;51.318;6.202;2023-05-10T10:25:35;26.70;;;19.30;;
3280;SDS011;1652;51.318;6.202;2023-05-10T10:28:09;26.50;;;18.20;;
3280;SDS011;1652;51.318;6.202;2023-05-10T10:30:53;25.63;;;16.27;;
3280;SDS011;1652;51.318;6.202;2023-05-10T10:33:36;19.43;;;16.87;;
3280;SDS011;1652;51.318;6.202;2023-05-10T10:36:18;25.60;;;17.10;;
3280;SDS011;1652;51.318;6.202;2023-05-10T10:41:27;24.20;;;18.13;;
3280;SDS011;1652;51.318;6.202;2023-05-10T10:52:14;31.57;;;17.10;;
3280;SDS011;1652;51.318;6.202;2023-05-10T10:54:53;19.77;;;16.40;;
3280;SDS011;1652;51.318;6.202;2023-05-10T11:00:20;17.13;;;14.93;;
3280;SDS011;1652;51.318;6.202;2023-05-10T11:05:40;22.40;;;15.00;;
3280;SDS011;1652;51.318;6.202;2023-05-10T11:08:09;21.10;;;14.43;;
3280;SDS011;1652;51.318;6.202;2023-05-10T11:10:38;15.83;;;13.67;;
3280;SDS011;1652;51.318;6.202;2023-05-10T11:13:07;19.17;;;14.40;;
3280;SDS011;1652;51.318;6.202;2023-05-10T11:15:36;18.47;;;14.10;;
3280;SDS011;1652;51.318;6.202;2023-05-10T11:18:20;17.23;;;12.60;;
3280;SDS011;1652;51.318;6.202;2023-05-10T11:23:30;13.57;;;12.17;;
3280;SDS011;1652;51.318;6.202;2023-05-10T11:26:07;19.63;;;13.37;;
3280;SDS011;1652;51.318;6.202;2023-05-10T11:28:44;14.40;;;11.93;;
3280;SDS011;1652;51.318;6.202;2023-05-10T11:31:15;15.00;;;12.17;;
3280;SDS011;1652;51.318;6.202;2023-05-10T11:33:44;15.20;;;12.90;;
3280;SDS011;1652;51.318;6.202;2023-05-10T11:36:28;24.90;;;12.77;;
3280;SDS011;1652;51.318;6.202;2023-05-10T11:38:59;15.40;;;13.10;;
3280;SDS011;1652;51.318;6.202;2023-05-10T11:41:27;14.27;;;12.87;;
3280;SDS011;1652;51.318;6.202;2023-05-10T11:43:56;13.43;;;12.07;;
3280;SDS011;1652;51.318;6.202;2023-05-10T11:46:24;17.23;;;13.77;;
3280;SDS011;1652;51.318;6.202;2023-05-10T11:48:56;19.37;;;14.40;;
3280;SDS011;1652;51.318;6.202;2023-05-10T11:51:26;20.77;;;14.90;;
3280;SDS011;1652;51.318;6.202;2023-05-10T11:53:54;20.93;;;17.47;;
3280;SDS011;1652;51.318;6.202;2023-05-10T11:56:22;23.90;;;18.33;;
3280;SDS011;1652;51.318;6.202;2023-05-10T11:58:56;27.50;;;19.27;;
3280;SDS011;1652;51.318;6.202;2023-05-10T12:01:24;26.13;;;18.63;;
3280;SDS011;1652;51.318;6.202;2023-05-10T12:03:53;25.07;;;18.53;;
3280;SDS011;1652;51.318;6.202;2023-05-10T12:06:21;24.37;;;18.90;;
3280;SDS011;1652;51.318;6.202;2023-05-10T12:08:48;24.43;;;17.33;;
3280;SDS011;1652;51.318;6.202;2023-05-10T12:11:20;33.73;;;17.27;;
3280;SDS011;1652;51.318;6.202;2023-05-10T12:13:50;23.50;;;17.43;;
3280;SDS011;1652;51.318;6.202;2023-05-10T12:16:24;25.90;;;18.20;;
3280;SDS011;1652;51.318;6.202;2023-05-10T12:18:58;23.67;;;17.10;;
3280;SDS011;1652;51.318;6.202;2023-05-10T12:21:27;25.13;;;17.63;;
3280;SDS011;1652;51.318;6.202;2023-05-10T12:24:01;22.10;;;17.53;;
3280;SDS011;1652;51.318;6.202;2023-05-10T12:26:29;22.77;;;16.97;;
3280;SDS011;1652;51.318;6.202;2023-05-10T12:29:13;22.53;;;16.57;;
3280;SDS011;1652;51.318;6.202;2023-05-10T12:31:48;21.10;;;17.30;;
3280;SDS011;1652;51.318;6.202;2023-05-10T12:34:26;20.70;;;17.17;;
3280;SDS011;1652;51.318;6.202;2023-05-10T12:36:57;19.73;;;16.33;;
3280;SDS011;1652;51.318;6.202;2023-05-10T12:39:25;25.70;;;16.50;;
3280;SDS011;1652;51.318;6.202;2023-05-10T12:41:52;18.93;;;15.90;;
3280;SDS011;1652;51.318;6.202;2023-05-10T12:44:19;19.40;;;16.33;;
3280;SDS011;1652;51.318;6.202;2023-05-10T12:46:46;18.93;;;16.80;;
3280;SDS011;1652;51.318;6.202;2023-05-10T12:49:13;16.33;;;14.53;;
3280;SDS011;1652;51.318;6.202;2023-05-10T12:51:40;16.47;;;14.50;;
3280;SDS011;1652;51.318;6.202;2023-05-10T12:54:07;16.93;;;14.57;;
3280;SDS011;1652;51.318;6.202;2023-05-10T12:56:33;15.73;;;14.20;;
3280;SDS011;1652;51.318;6.202;2023-05-10T12:59:00;15.87;;;13.73;;
3280;SDS011;1652;51.318;6.202;2023-05-10T13:01:27;15.20;;;13.27;;
3280;SDS011;1652;51.318;6.202;2023-05-10T13:03:54;16.20;;;13.37;;
3280;SDS011;1652;51.318;6.202;2023-05-10T13:06:21;18.07;;;13.77;;
3280;SDS011;1652;51.318;6.202;2023-05-10T13:08:48;17.47;;;13.23;;
3280;SDS011;1652;51.318;6.202;2023-05-10T13:11:15;16.10;;;13.37;;
3280;SDS011;1652;51.318;6.202;2023-05-10T13:13:43;13.33;;;12.00;;
3280;SDS011;1652;51.318;6.202;2023-05-10T13:16:10;14.17;;;12.77;;
3280;SDS011;1652;51.318;6.202;2023-05-10T13:18:36;14.73;;;13.27;;
3280;SDS011;1652;51.318;6.202;2023-05-10T13:21:03;12.80;;;11.60;;
3280;SDS011;1652;51.318;6.202;2023-05-10T13:23:31;14.57;;;13.07;;
3280;SDS011;1652;51.318;6.202;2023-05-10T13:25:58;13.77;;;12.37;;
3280;SDS011;1652;51.318;6.202;2023-05-10T13:28:25;15.17;;;13.60;;
3280;SDS011;1652;51.318;6.202;2023-05-10T13:30:52;14.80;;;12.83;;
3280;SDS011;1652;51.318;6.202;2023-05-10T13:33:19;16.23;;;13.50;;
3280;SDS011;1652;51.318;6.202;2023-05-10T13:35:46;16.70;;;13.40;;
3280;SDS011;1652;51.318;6.202;2023-05-10T13:38:13;13.90;;;12.50;;
3280;SDS011;1652;51.318;6.202;2023-05-10T13:40:40;20.80;;;16.50;;
3280;SDS011;1652;51.318;6.202;2023-05-10T13:43:07;13.43;;;12.07;;
3280;SDS011;1652;51.318;6.202;2023-05-10T13:45:34;16.40;;;13.03;;
3280;SDS011;1652;51.318;6.202;2023-05-10T13:48:00;16.07;;;14.23;;
3280;SDS011;1652;51.318;6.202;2023-05-10T13:50:27;15.00;;;13.10;;
3280;SDS011;1652;51.318;6.202;2023-05-10T13:52:54;14.03;;;12.73;;
3280;SDS011;1652;51.318;6.202;2023-05-10T13:55:21;13.27;;;11.90;;
3280;SDS011;1652;51.318;6.202;2023-05-10T13:57:48;14.93;;;13.40;;
3280;SDS011;1652;51.318;6.202;2023-05-10T14:00:15;16.13;;;12.97;;
3280;SDS011;1652;51.318;6.202;2023-05-10T14:02:42;12.40;;;11.17;;
3280;SDS011;1652;51.318;6.202;2023-05-10T14:05:09;15.10;;;12.10;;
3280;SDS011;1652;51.318;6.202;2023-05-10T14:07:37;14.07;;;11.80;;
3280;SDS011;1652;51.318;6.202;2023-05-10T14:10:05;13.53;;;10.87;;
3280;SDS011;1652;51.318;6.202;2023-05-10T14:12:32;11.17;;;10.03;;
3280;SDS011;1652;51.318;6.202;2023-05-10T14:14:59;17.33;;;12.20;;
3280;SDS011;1652;51.318;6.202;2023-05-10T14:20:05;13.50;;;11.97;;
3280;SDS011;1652;51.318;6.202;2023-05-10T14:22:33;11.37;;;10.27;;
3280;SDS011;1652;51.318;6.202;2023-05-10T14:25:00;11.97;;;10.77;;
3280;SDS011;1652;51.318;6.202;2023-05-10T14:27:27;12.93;;;11.10;;
3280;SDS011;1652;51.318;6.202;2023-05-10T14:29:54;10.83;;;9.73;;
3280;SDS011;1652;51.318;6.202;2023-05-10T14:32:20;16.77;;;12.07;;
3280;SDS011;1652;51.318;6.202;2023-05-10T14:34:47;22.03;;;18.70;;
3280;SDS011;1652;51.318;6.202;2023-05-10T14:37:14;13.77;;;12.30;;
3280;SDS011;1652;51.318;6.202;2023-05-10T14:39:42;12.37;;;11.17;;
3280;SDS011;1652;51.318;6.202;2023-05-10T14:42:09;12.43;;;11.07;;
3280;SDS011;1652;51.318;6.202;2023-05-10T14:44:36;13.43;;;10.90;;
3280;SDS011;1652;51.318;6.202;2023-05-10T14:47:03;10.80;;;9.80;;
3280;SDS011;1652;51.318;6.202;2023-05-10T14:49:30;14.10;;;9.97;;
3280;SDS011;1652;51.318;6.202;2023-05-10T14:51:57;11.73;;;9.10;;
3280;SDS011;1652;51.318;6.202;2023-05-10T14:54:24;12.20;;;9.10;;
3280;SDS011;1652;51.318;6.202;2023-05-10T14:56:51;14.23;;;10.07;;
3280;SDS011;1652;51.318;6.202;2023-05-10T14:59:18;10.87;;;9.77;;
3280;SDS011;1652;51.318;6.202;2023-05-10T15:01:45;9.93;;;8.87;;
3280;SDS011;1652;51.318;6.202;2023-05-10T15:04:13;11.53;;;9.33;;
3280;SDS011;1652;51.318;6.202;2023-05-10T15:06:43;9.17;;;8.37;;
3280;SDS011;1652;51.318;6.202;2023-05-10T15:09:10;10.07;;;9.07;;
3280;SDS011;1652;51.318;6.202;2023-05-10T15:11:37;8.73;;;8.03;;
3280;SDS011;1652;51.318;6.202;2023-05-10T15:14:03;12.17;;;10.40;;
3280;SDS011;1652;51.318;6.202;2023-05-10T15:16:30;18.47;;;9.70;;
3280;SDS011;1652;51.318;6.202;2023-05-10T15:19:01;11.63;;;10.43;;
3280;SDS011;1652;51.318;6.202;2023-05-10T15:21:28;15.20;;;11.80;;
3280;SDS011;1652;51.318;6.202;2023-05-10T15:23:57;14.87;;;12.20;;
3280;SDS011;1652;51.318;6.202;2023-05-10T15:26:23;13.23;;;11.83;;
3280;SDS011;1652;51.318;6.202;2023-05-10T15:28:52;11.63;;;10.33;;
3280;SDS011;1652;51.318;6.202;2023-05-10T15:31:19;10.47;;;9.43;;
3280;SDS011;1652;51.318;6.202;2023-05-10T15:33:46;10.50;;;8.93;;
3280;SDS011;1652;51.318;6.202;2023-05-10T15:36:13;13.03;;;8.70;;
3280;SDS011;1652;51.318;6.202;2023-05-10T15:38:39;15.43;;;12.50;;
3280;SDS011;1652;51.318;6.202;2023-05-10T15:41:06;15.20;;;10.60;;
3280;SDS011;1652;51.318;6.202;2023-05-10T15:43:33;7.47;;;6.77;;
3280;SDS011;1652;51.318;6.202;2023-05-10T15:46:00;20.70;;;7.50;;